createdAt,value
2023-07-05T00:04:27.018Z,14.12
2023-07-05T00:09:30.899Z,14.07
2023-07-05T00:14:34.745Z,14.04
2023-07-05T00:19:38.486Z,14.00
2023-07-05T00:24:42.333Z,13.99
2023-07-05T00:29:46.211Z,13.96
2023-07-05T00:34:50.087Z,13.87
2023-07-05T00:39:54.003Z,13.75
2023-07-05T00:45:13.261Z,13.72
2023-07-05T00:50:26.302Z,13.60
2023-07-05T00:55:30.462Z,13.54
2023-07-05T01:00:34.335Z,13.48
2023-07-05T01:05:39.019Z,13.40
2023-07-05T01:10:48.700Z,13.35
2023-07-05T01:16:23.638Z,13.30
2023-07-05T01:21:49.769Z,13.23
2023-07-05T01:27:11.688Z,13.27
2023-07-05T01:32:18.084Z,13.31
2023-07-05T01:37:29.919Z,13.32
2023-07-05T01:42:35.734Z,13.28
2023-07-05T01:47:54.666Z,13.24
2023-07-05T01:53:09.222Z,13.17
2023-07-05T01:58:16.535Z,13.12
2023-07-05T02:03:23.683Z,13.11
2023-07-05T02:08:31.236Z,13.07
2023-07-05T02:13:35.071Z,13.02
2023-07-05T02:18:41.293Z,13.02
2023-07-05T02:23:45.427Z,13.04
2023-07-05T02:28:50.543Z,13.04
2023-07-05T02:33:54.904Z,12.99
2023-07-05T02:39:00.940Z,13.06
2023-07-05T02:44:05.321Z,13.12
2023-07-05T02:49:10.160Z,13.18
2023-07-05T02:54:14.507Z,13.22
2023-07-05T02:59:18.521Z,13.27
2023-07-05T03:04:22.499Z,13.34
2023-07-05T03:09:26.420Z,13.43
2023-07-05T03:14:30.328Z,13.54
2023-07-05T03:19:34.456Z,13.65
2023-07-05T03:24:38.512Z,13.73
2023-07-05T03:29:42.399Z,13.87
2023-07-05T03:34:46.328Z,14.24
2023-07-05T03:39:54.453Z,14.65
2023-07-05T03:44:58.437Z,15.17
2023-07-05T03:50:02.331Z,15.99
2023-07-05T03:55:07.291Z,16.91
2023-07-05T04:00:12.064Z,17.83
2023-07-05T04:05:20.260Z,18.76
2023-07-05T04:10:26.905Z,19.34
2023-07-05T04:15:30.718Z,20.05
2023-07-05T04:20:34.566Z,21.08
2023-07-05T04:25:38.440Z,22.06
2023-07-05T04:30:42.250Z,22.90
2023-07-05T04:35:54.316Z,23.63
2023-07-05T04:40:59.707Z,24.56
2023-07-05T04:46:03.740Z,25.07
2023-07-05T04:51:07.681Z,24.56
2023-07-05T04:56:14.001Z,24.17
2023-07-05T05:01:19.837Z,24.35
2023-07-05T05:06:24.116Z,25.18
2023-07-05T05:11:30.595Z,25.96
2023-07-05T05:16:34.503Z,26.46
2023-07-05T05:21:38.910Z,25.78
2023-07-05T05:26:42.750Z,24.41
2023-07-05T05:31:46.520Z,23.48
2023-07-05T05:36:51.838Z,22.88
2023-07-05T05:41:55.684Z,22.48
2023-07-05T05:46:59.549Z,22.20
2023-07-05T05:52:03.617Z,22.12
2023-07-05T05:57:08.234Z,22.15
2023-07-05T06:02:12.364Z,22.30
2023-07-05T06:07:19.997Z,22.51
2023-07-05T06:12:24.614Z,22.79
2023-07-05T06:17:28.445Z,23.03
2023-07-05T06:22:33.916Z,23.13
2023-07-05T06:27:38.669Z,23.27
2023-07-05T06:32:45.101Z,23.37
2023-07-05T06:37:48.973Z,23.48
2023-07-05T06:42:53.864Z,23.63
2023-07-05T06:47:59.043Z,23.82
2023-07-05T06:53:23.201Z,24.09
2023-07-05T06:58:33.693Z,24.30
2023-07-05T07:03:37.911Z,24.48
2023-07-05T07:08:41.786Z,24.68
2023-07-05T07:13:45.721Z,24.85
2023-07-05T07:18:51.496Z,24.96
2023-07-05T07:23:55.267Z,25.10
2023-07-05T07:28:59.161Z,25.33
2023-07-05T07:34:04.862Z,25.56
2023-07-05T07:39:09.697Z,25.65
2023-07-05T07:44:14.617Z,25.83
2023-07-05T07:49:18.618Z,26.13
2023-07-05T07:54:27.427Z,26.44
2023-07-05T07:59:31.234Z,26.82
2023-07-05T08:04:35.201Z,27.11
2023-07-05T08:09:39.350Z,27.35
2023-07-05T08:14:43.132Z,27.55
2023-07-05T08:19:48.627Z,27.72
2023-07-05T08:24:53.131Z,27.89
2023-07-05T08:29:57.090Z,27.96
2023-07-05T08:35:00.878Z,27.97
2023-07-05T08:40:08.916Z,28.12
2023-07-05T08:45:12.910Z,28.30
2023-07-05T08:50:28.974Z,28.37
2023-07-05T08:55:55.601Z,28.38
2023-07-05T09:01:11.629Z,28.48
2023-07-05T09:06:23.218Z,28.74
2023-07-05T09:11:59.005Z,28.99
2023-07-05T09:17:10.485Z,29.28
2023-07-05T09:22:20.837Z,29.40
2023-07-05T09:27:28.725Z,29.50
2023-07-05T09:32:37.076Z,29.39
2023-07-05T09:37:45.515Z,29.21
2023-07-05T09:43:03.638Z,29.33
2023-07-05T09:48:12.509Z,29.60
2023-07-05T09:53:34.817Z,29.63
2023-07-05T09:58:40.116Z,29.79
2023-07-05T10:03:55.726Z,30.13
2023-07-05T10:09:12.438Z,30.45
2023-07-05T10:14:18.946Z,30.69
2023-07-05T10:19:32.319Z,30.93
2023-07-05T10:24:47.900Z,31.26
2023-07-05T10:29:59.181Z,31.64
2023-07-05T10:35:03.458Z,31.79
2023-07-05T10:40:11.110Z,31.73
2023-07-05T10:45:16.601Z,31.55
2023-07-05T10:50:35.129Z,31.30
2023-07-05T10:56:07.208Z,31.29
2023-07-05T11:01:19.858Z,31.26
2023-07-05T11:06:24.876Z,31.32
2023-07-05T11:11:32.121Z,31.69
2023-07-05T11:16:36.226Z,31.66
2023-07-05T11:21:46.305Z,31.30
2023-07-05T11:26:50.264Z,30.98
2023-07-05T11:32:14.244Z,31.16
2023-07-05T11:37:18.020Z,31.90
2023-07-05T11:42:22.916Z,32.42
2023-07-05T11:47:26.730Z,32.54
2023-07-05T11:52:33.932Z,32.31
2023-07-05T11:57:46.356Z,31.92
2023-07-05T12:03:01.568Z,31.56
2023-07-05T12:08:14.666Z,31.04
2023-07-05T12:13:26.404Z,30.39
2023-07-05T12:18:32.498Z,29.72
2023-07-05T12:23:37.733Z,28.84
2023-07-05T12:28:44.256Z,27.94
2023-07-05T12:33:56.551Z,27.60
2023-07-05T12:39:09.157Z,27.44
2023-07-05T12:44:20.258Z,27.21
2023-07-05T12:49:30.244Z,26.92
2023-07-05T12:54:43.083Z,26.73
2023-07-05T13:00:04.948Z,26.40
2023-07-05T13:05:21.882Z,26.11
2023-07-05T13:10:30.361Z,26.02
2023-07-05T13:15:38.837Z,26.16
2023-07-05T13:20:50.438Z,26.22
2023-07-05T13:25:54.471Z,26.03
2023-07-05T13:31:04.750Z,25.72
2023-07-05T13:36:09.524Z,25.29
2023-07-05T13:41:13.340Z,24.81
2023-07-05T13:46:17.641Z,24.36
2023-07-05T13:51:30.528Z,23.90
2023-07-05T13:56:37.607Z,23.41
2023-07-05T14:01:49.523Z,23.09
2023-07-05T14:06:54.867Z,22.99
2023-07-05T14:12:00.872Z,23.07
2023-07-05T14:17:05.675Z,23.24
2023-07-05T14:22:20.677Z,23.43
2023-07-05T14:27:25.719Z,23.62
2023-07-05T14:32:29.697Z,23.88
2023-07-05T14:37:36.866Z,24.30
2023-07-05T14:42:41.448Z,24.79
2023-07-05T14:47:52.708Z,25.25
2023-07-05T14:52:58.741Z,25.55
2023-07-05T14:58:03.230Z,25.68
2023-07-05T15:03:10.234Z,25.86
2023-07-05T15:08:15.379Z,26.12
2023-07-05T15:13:22.299Z,26.11
2023-07-05T15:18:26.110Z,25.98
2023-07-05T15:23:37.049Z,25.67
2023-07-05T15:28:41.821Z,25.36
2023-07-05T15:33:45.863Z,25.25
2023-07-05T15:38:50.549Z,25.26
2023-07-05T15:43:54.397Z,25.40
2023-07-05T15:48:58.554Z,25.59
2023-07-05T15:54:03.275Z,25.94
2023-07-05T15:59:14.181Z,26.29
2023-07-05T16:04:18.001Z,26.34
2023-07-05T16:09:22.258Z,26.18
2023-07-05T16:14:30.152Z,25.88
2023-07-05T16:19:40.572Z,25.44
2023-07-05T16:24:46.577Z,25.06
2023-07-05T16:29:53.983Z,24.69
2023-07-05T16:34:58.094Z,24.31
2023-07-05T16:40:05.562Z,23.96
2023-07-05T16:45:13.860Z,23.57
2023-07-05T16:50:18.426Z,23.21
2023-07-05T16:55:23.282Z,22.91
2023-07-05T17:00:30.358Z,22.61
2023-07-05T17:05:35.596Z,22.33
2023-07-05T17:10:40.064Z,22.11
2023-07-05T17:15:44.493Z,21.95
2023-07-05T17:21:00.549Z,21.82
2023-07-05T17:26:11.885Z,21.79
2023-07-05T17:31:22.552Z,21.85
2023-07-05T17:36:28.621Z,21.98
2023-07-05T17:41:33.822Z,22.07
2023-07-05T17:46:44.720Z,22.10
2023-07-05T17:51:49.361Z,22.07
2023-07-05T17:56:53.342Z,22.12
2023-07-05T18:01:57.983Z,22.39
2023-07-05T18:07:03.070Z,22.59
2023-07-05T18:12:07.996Z,22.48
2023-07-05T18:17:12.855Z,22.36
2023-07-05T18:22:17.725Z,22.20
2023-07-05T18:27:22.359Z,22.05
2023-07-05T18:32:26.779Z,21.93
2023-07-05T18:37:32.644Z,21.79
2023-07-05T18:42:37.152Z,21.59
2023-07-05T18:47:42.109Z,21.32
2023-07-05T18:52:46.875Z,21.00
2023-07-05T18:57:51.306Z,20.70
2023-07-05T19:02:55.885Z,20.43
2023-07-05T19:08:00.433Z,20.15
2023-07-05T19:13:04.798Z,19.90
2023-07-05T19:18:10.060Z,19.62
2023-07-05T19:23:15.749Z,19.33
2023-07-05T19:28:19.672Z,19.02
2023-07-05T19:33:23.745Z,18.72
2023-07-05T19:38:28.025Z,18.55
2023-07-05T19:43:34.179Z,18.39
2023-07-05T19:48:38.825Z,18.26
2023-07-05T19:53:46.320Z,18.11
2023-07-05T19:58:51.378Z,17.96
2023-07-05T20:03:56.253Z,17.84
2023-07-05T20:09:05.223Z,17.70
2023-07-05T20:14:10.869Z,17.61
2023-07-05T20:19:16.098Z,17.56
2023-07-05T20:24:20.855Z,17.56
2023-07-05T20:29:25.135Z,17.62
2023-07-05T20:34:29.436Z,17.71
2023-07-05T20:39:33.161Z,17.78
2023-07-05T20:44:37.082Z,17.81
2023-07-05T20:49:40.918Z,17.81
2023-07-05T20:54:51.157Z,17.77
2023-07-05T20:59:56.058Z,17.71
2023-07-05T21:04:59.801Z,17.68
2023-07-05T21:10:03.657Z,17.67
2023-07-05T21:15:08.843Z,17.65
2023-07-05T21:20:13.318Z,17.62
2023-07-05T21:25:17.606Z,17.57
2023-07-05T21:30:21.309Z,17.51
2023-07-05T21:35:31.113Z,17.42
2023-07-05T21:40:38.455Z,17.28
2023-07-05T21:45:46.636Z,17.16
2023-07-05T21:50:51.779Z,17.08
2023-07-05T21:56:03.620Z,17.02
2023-07-05T22:01:09.763Z,16.92
2023-07-05T22:06:13.719Z,16.77
2023-07-05T22:11:17.685Z,16.64
2023-07-05T22:16:21.753Z,16.53
2023-07-05T22:21:26.503Z,16.43
2023-07-05T22:26:30.301Z,16.33
2023-07-05T22:31:35.087Z,16.25
2023-07-05T22:36:39.753Z,16.13
2023-07-05T22:41:43.403Z,16.02
2023-07-05T22:46:47.194Z,15.92
2023-07-05T22:51:53.207Z,15.84
2023-07-05T22:56:58.394Z,15.76
2023-07-05T23:02:05.184Z,15.72
2023-07-05T23:07:09.420Z,15.67
2023-07-05T23:12:13.349Z,15.61
2023-07-05T23:17:17.194Z,15.56
2023-07-05T23:22:21.074Z,15.53
2023-07-05T23:27:24.900Z,15.52
2023-07-05T23:32:29.924Z,15.53
2023-07-05T23:37:33.698Z,15.54
2023-07-05T23:42:38.789Z,15.55
2023-07-05T23:47:42.902Z,15.53
2023-07-05T23:52:46.801Z,15.46
2023-07-05T23:57:50.580Z,15.39
